Time;durP1;ratioP1;P1;durP2;ratioP2;P2;SDS_P1;SDS_P2;PMS_P1;PMS_P2;Temp;Humidity;BMP_temperature;BMP_pressure;BME280_temperature;BME280_humidity;BME280_pressure;Samples;Min_cycle;Max_cycle;Signal;HPM_P1;HPM_P2
2021/01/15 00:00:37;;;;;;;4.05;2.03;;;10.00;72.10;;;;;;7633645;23;20294;-75
2021/01/15 00:03:39;;;;;;;3.50;2.53;;;10.00;71.20;;;;;;7681050;23;20024;-74
2021/01/15 00:06:40;;;;;;;5.00;1.63;;;10.00;71.20;;;;;;7654742;23;20024;-74
2021/01/15 00:09:41;;;;;;;5.10;1.88;;;9.90;71.00;;;;;;7629866;23;20277;-74
2021/01/15 00:12:41;;;;;;;3.47;1.95;;;9.80;71.10;;;;;;7628832;23;20017;-74
2021/01/15 00:15:42;;;;;;;6.85;2.65;;;9.80;71.30;;;;;;7679387;23;20013;-73
2021/01/15 00:18:43;;;;;;;5.65;2.42;;;9.80;71.40;;;;;;7680333;23;20099;-74
2021/01/15 00:21:50;;;;;;;7.28;3.40;;;9.80;71.40;;;;;;7680107;23;20028;-73
2021/01/15 00:24:51;;;;;;;11.77;5.10;;;9.80;71.40;;;;;;7680285;23;20017;-73
2021/01/15 00:27:52;;;;;;;10.60;4.38;;;9.80;71.50;;;;;;7678517;23;20463;-73
2021/01/15 00:30:53;;;;;;;9.57;5.03;;;9.70;71.60;;;;;;7680274;23;20057;-74
2021/01/15 00:33:53;;;;;;;15.82;6.32;;;9.70;71.80;;;;;;7679206;23;20049;-73
2021/01/15 00:36:54;;;;;;;7.03;4.28;;;9.70;71.90;;;;;;7679180;23;20039;-73
2021/01/15 00:39:55;;;;;;;10.23;4.45;;;9.70;72.00;;;;;;7680058;23;20017;-73
2021/01/15 00:42:56;;;;;;;8.23;4.68;;;9.70;72.20;;;;;;7679816;23;20028;-73
2021/01/15 00:45:58;;;;;;;6.95;3.72;;;9.70;72.30;;;;;;7653301;23;20045;-74
2021/01/15 00:49:03;;;;;;;7.30;3.70;;;9.70;72.40;;;;;;7678624;23;20013;-73
2021/01/15 00:52:04;;;;;;;6.15;2.95;;;9.70;72.40;;;;;;7682869;23;20033;-74
2021/01/15 00:55:07;;;;;;;4.50;2.50;;;9.70;72.50;;;;;;7683408;23;20430;-73
2021/01/15 00:58:13;;;;;;;3.17;2.00;;;9.60;72.40;;;;;;7684102;23;20033;-75
2021/01/15 01:01:17;;;;;;;3.75;1.45;;;9.60;72.30;;;;;;7685514;23;20104;-74
2021/01/15 01:04:23;;;;;;;3.90;1.90;;;9.60;72.30;;;;;;7657771;23;20024;-73
2021/01/15 01:07:24;;;;;;;2.60;1.80;;;9.60;72.30;;;;;;7652449;23;20017;-73
2021/01/15 01:10:25;;;;;;;4.05;2.22;;;9.60;72.20;;;;;;7679999;23;20321;-74
2021/01/15 01:13:26;;;;;;;3.22;1.90;;;9.60;72.10;;;;;;7653476;23;20013;-73
2021/01/15 01:16:27;;;;;;;4.47;1.88;;;9.60;72.10;;;;;;7677212;23;20078;-73
2021/01/15 01:19:28;;;;;;;4.53;1.98;;;9.60;72.20;;;;;;7653510;23;20460;-73
2021/01/15 01:22:29;;;;;;;2.65;1.38;;;9.60;72.30;;;;;;7653754;23;20017;-74
2021/01/15 01:25:30;;;;;;;1.92;0.93;;;9.60;72.30;;;;;;7677756;23;20013;-73
2021/01/15 01:28:31;;;;;;;3.85;1.67;;;9.60;72.30;;;;;;7678192;23;20017;-74
2021/01/15 01:31:32;;;;;;;3.08;1.40;;;9.60;72.30;;;;;;7653454;23;20028;-72
2021/01/15 01:34:33;;;;;;;2.65;1.50;;;9.60;72.20;;;;;;7655473;23;20424;-75
2021/01/15 01:37:34;;;;;;;2.13;0.93;;;9.60;72.10;;;;;;7680836;23;20008;-74
2021/01/15 01:40:35;;;;;;;2.10;1.10;;;9.70;72.20;;;;;;7679626;23;20085;-73
2021/01/15 01:43:37;;;;;;;1.45;0.90;;;9.60;72.10;;;;;;7679350;23;20048;-74
2021/01/15 01:46:39;;;;;;;1.00;0.80;;;9.60;72.20;;;;;;7676526;23;20017;-75
2021/01/15 01:49:40;;;;;;;2.05;1.20;;;9.60;72.20;;;;;;7678286;23;20012;-75
2021/01/15 01:52:42;;;;;;;2.53;0.80;;;9.60;72.20;;;;;;7716336;23;20021;-73
2021/01/15 01:55:44;;;;;;;1.27;0.90;;;9.60;72.10;;;;;;7690764;23;20067;-75
2021/01/15 01:58:45;;;;;;;0.73;0.68;;;9.60;72.10;;;;;;7689831;23;20044;-73
2021/01/15 02:01:45;;;;;;;3.45;1.27;;;9.60;72.10;;;;;;7627907;23;20084;-74
2021/01/15 02:04:46;;;;;;;3.00;1.67;;;9.50;72.10;;;;;;7704013;23;20024;-73
2021/01/15 02:07:50;;;;;;;2.15;1.27;;;9.50;72.20;;;;;;7678427;23;20332;-73
2021/01/15 02:11:17;;;;;;;2.88;1.77;;;9.50;72.20;;;;;;7653739;23;20012;-73
2021/01/15 02:14:49;;;;;;;2.30;1.50;;;9.40;72.20;;;;;;7555443;23;20033;-73
2021/01/15 02:18:01;;;;;;;1.40;1.15;;;9.40;72.30;;;;;;7540145;23;20023;-73
2021/01/15 02:21:37;;;;;;;1.42;0.85;;;9.40;72.40;;;;;;7565476;23;20018;-73
2021/01/15 02:25:19;;;;;;;3.20;1.85;;;9.50;72.50;;;;;;7539891;23;20132;-73
2021/01/15 02:28:28;;;;;;;1.05;0.93;;;9.50;72.50;;;;;;7540248;23;20018;-73
2021/01/15 02:31:44;;;;;;;2.58;1.45;;;9.40;72.40;;;;;;7564075;23;20045;-73
2021/01/15 02:35:44;;;;;;;6.47;1.60;;;9.40;72.30;;;;;;7541389;23;20081;-74
2021/01/15 02:38:54;;;;;;;1.60;0.93;;;9.40;73.20;;;;;;7434554;23;20024;-73
2021/01/15 02:41:59;;;;;;;2.53;1.17;;;9.40;72.40;;;;;;7457733;23;20015;-74
2021/01/15 02:45:08;;;;;;;3.10;1.45;;;9.40;72.20;;;;;;7458406;23;20024;-73
2021/01/15 02:48:15;;;;;;;2.58;1.17;;;9.30;72.10;;;;;;7407519;23;20024;-73
2021/01/15 02:51:16;;;;;;;1.67;1.02;;;9.30;72.50;;;;;;7452929;23;20039;-73
2021/01/15 02:54:17;;;;;;;3.08;1.20;;;9.30;72.40;;;;;;7531716;23;20430;-73
2021/01/15 02:57:18;;;;;;;1.13;0.90;;;9.40;72.50;;;;;;7471578;23;20025;-73
2021/01/15 03:00:21;;;;;;;2.20;1.38;;;9.40;72.50;;;;;;7495526;23;20023;-74
2021/01/15 03:03:32;;;;;;;1.77;0.80;;;9.40;72.50;;;;;;7505704;23;20326;-73
2021/01/15 03:06:49;;;;;;;1.77;0.90;;;9.50;72.30;;;;;;7531058;23;20019;-74
2021/01/15 03:09:54;;;;;;;2.15;1.02;;;9.40;72.20;;;;;;7653318;23;20302;-74
2021/01/15 03:12:57;;;;;;;0.70;0.70;;;9.40;72.20;;;;;;7653526;23;20021;-73
2021/01/15 03:16:01;;;;;;;1.25;0.57;;;9.40;72.30;;;;;;7653338;23;20021;-73
2021/01/15 03:19:03;;;;;;;2.03;0.90;;;9.40;72.20;;;;;;7652700;23;20029;-75
2021/01/15 03:22:13;;;;;;;0.40;0.40;;;9.40;72.20;;;;;;7653172;23;20043;-73
2021/01/15 03:25:16;;;;;;;1.13;0.73;;;9.50;72.30;;;;;;7652447;23;20370;-75
2021/01/15 03:28:17;;;;;;;2.60;1.23;;;9.40;72.20;;;;;;7628178;23;20020;-74
2021/01/15 03:31:18;;;;;;;2.20;1.27;;;9.40;73.00;;;;;;7653550;23;20096;-75
2021/01/15 03:34:19;;;;;;;1.30;0.93;;;9.40;72.40;;;;;;7653086;23;20009;-75
2021/01/15 03:37:20;;;;;;;1.63;0.90;;;9.40;72.40;;;;;;7653447;23;20028;-73
2021/01/15 03:40:20;;;;;;;1.02;0.93;;;9.50;72.30;;;;;;7652395;23;20048;-73
2021/01/15 03:43:23;;;;;;;3.83;1.02;;;9.50;72.30;;;;;;7650506;23;20024;-73
2021/01/15 03:46:24;;;;;;;0.90;0.82;;;9.40;72.20;;;;;;7628491;23;20393;-75
2021/01/15 03:49:25;;;;;;;2.92;1.00;;;9.40;72.40;;;;;;7628829;23;20282;-74
2021/01/15 03:52:26;;;;;;;1.10;0.85;;;9.40;72.50;;;;;;7640372;23;20021;-74
2021/01/15 03:55:27;;;;;;;2.90;1.55;;;9.40;72.60;;;;;;7641125;23;20033;-74
2021/01/15 03:58:28;;;;;;;1.80;1.20;;;9.30;72.50;;;;;;7639499;23;20072;-74
2021/01/15 04:01:29;;;;;;;1.45;1.20;;;9.40;72.70;;;;;;7640636;23;20326;-74
2021/01/15 04:04:31;;;;;;;3.22;1.73;;;9.40;72.80;;;;;;7620220;23;20028;-74
2021/01/15 04:07:32;;;;;;;3.08;1.70;;;9.40;72.80;;;;;;7653023;23;20032;-74
2021/01/15 04:10:33;;;;;;;3.55;1.80;;;9.40;72.80;;;;;;7677527;23;20013;-74
2021/01/15 04:13:34;;;;;;;3.00;1.50;;;9.40;72.80;;;;;;7678494;23;20027;-74
2021/01/15 04:16:34;;;;;;;5.22;1.60;;;9.40;72.70;;;;;;7678863;23;20370;-73
2021/01/15 04:19:36;;;;;;;2.30;1.23;;;9.40;72.80;;;;;;7676698;23;20024;-75
2021/01/15 04:22:39;;;;;;;2.00;1.13;;;9.40;72.90;;;;;;7677561;23;20086;-73
2021/01/15 04:25:40;;;;;;;1.58;1.13;;;9.40;72.90;;;;;;7652475;23;20017;-73
2021/01/15 04:28:41;;;;;;;2.22;0.70;;;9.40;72.90;;;;;;7677659;23;20423;-74
2021/01/15 04:31:42;;;;;;;1.17;0.98;;;9.40;73.10;;;;;;7677480;23;20405;-74
2021/01/15 04:34:42;;;;;;;1.60;1.05;;;9.40;72.90;;;;;;7677094;23;20017;-74
2021/01/15 04:37:43;;;;;;;1.88;1.20;;;9.40;72.90;;;;;;7652686;23;20092;-74
2021/01/15 04:40:44;;;;;;;2.25;1.13;;;9.40;72.90;;;;;;7677439;23;20320;-75
2021/01/15 04:43:54;;;;;;;1.88;1.20;;;9.40;72.80;;;;;;7677943;23;20013;-74
2021/01/15 04:46:56;;;;;;;2.15;1.40;;;9.50;72.80;;;;;;7677472;23;20009;-73
2021/01/15 04:49:59;;;;;;;3.80;1.70;;;9.40;72.80;;;;;;7678508;23;20013;-74
2021/01/15 04:53:04;;;;;;;2.90;1.80;;;9.40;72.80;;;;;;7710012;23;20120;-74
2021/01/15 04:56:11;;;;;;;1.95;1.60;;;9.40;72.80;;;;;;7691500;23;20070;-74
2021/01/15 04:59:13;;;;;;;3.83;1.98;;;9.40;72.90;;;;;;7665243;23;20059;-73
2021/01/15 05:02:16;;;;;;;4.15;2.35;;;9.50;73.00;;;;;;7691064;23;20292;-75
2021/01/15 05:05:25;;;;;;;3.70;1.65;;;9.40;72.90;;;;;;7691287;23;20020;-75
2021/01/15 05:08:28;;;;;;;3.75;2.40;;;9.40;72.90;;;;;;7690540;23;20540;-73
2021/01/15 05:11:31;;;;;;;4.30;2.50;;;9.40;73.00;;;;;;7666182;23;20430;-74
2021/01/15 05:14:34;;;;;;;4.05;2.15;;;9.40;73.10;;;;;;7664941;23;20013;-73
2021/01/15 05:17:37;;;;;;;3.75;2.08;;;9.40;73.20;;;;;;7690566;23;20017;-75
2021/01/15 05:20:38;;;;;;;2.67;1.60;;;9.40;74.10;;;;;;7674546;23;20107;-73
2021/01/15 05:23:39;;;;;;;2.90;1.98;;;9.40;73.30;;;;;;7665282;23;20358;-75
2021/01/15 05:26:40;;;;;;;3.40;2.17;;;9.40;73.30;;;;;;7691105;23;20016;-75
2021/01/15 05:29:41;;;;;;;4.53;2.65;;;9.40;73.20;;;;;;7719073;23;20028;-72
2021/01/15 05:32:42;;;;;;;5.38;2.40;;;9.40;73.30;;;;;;7692973;23;20075;-74
2021/01/15 05:35:51;;;;;;;3.08;2.17;;;9.40;73.30;;;;;;7691001;23;20028;-74
2021/01/15 05:39:11;;;;;;;3.75;2.45;;;9.40;73.40;;;;;;7690616;23;20028;-73
2021/01/15 05:42:12;;;;;;;2.53;1.58;;;9.40;73.50;;;;;;7690394;23;20016;-73
2021/01/15 05:45:17;;;;;;;3.92;2.22;;;9.50;73.40;;;;;;7689432;23;20024;-73
2021/01/15 05:48:26;;;;;;;3.28;1.88;;;9.40;73.30;;;;;;7690269;23;20017;-73
2021/01/15 05:51:32;;;;;;;2.80;1.65;;;9.40;73.40;;;;;;7664447;23;20427;-75
2021/01/15 05:54:34;;;;;;;2.85;1.70;;;9.40;73.50;;;;;;7716632;23;20416;-73
2021/01/15 05:57:37;;;;;;;3.33;1.60;;;9.50;73.60;;;;;;7652656;23;20024;-75
2021/01/15 06:00:38;;;;;;;3.15;1.67;;;9.50;73.50;;;;;;7691197;23;20024;-75
2021/01/15 06:03:39;;;;;;;4.03;1.83;;;9.50;73.50;;;;;;7689672;23;20444;-74
2021/01/15 06:06:41;;;;;;;3.17;1.88;;;9.50;73.40;;;;;;7689876;23;20033;-75
2021/01/15 06:09:43;;;;;;;3.35;1.98;;;9.50;73.40;;;;;;7689872;23;20013;-74
2021/01/15 06:12:44;;;;;;;3.53;2.22;;;9.60;73.50;;;;;;7689692;23;20035;-75
2021/01/15 06:15:48;;;;;;;3.70;2.08;;;9.60;73.30;;;;;;7665837;23;20380;-74
2021/01/15 06:19:15;;;;;;;3.33;2.22;;;9.50;73.30;;;;;;7688629;23;20035;-74
2021/01/15 06:22:47;;;;;;;4.28;2.33;;;9.50;73.50;;;;;;7677034;23;20013;-74
2021/01/15 06:25:59;;;;;;;4.68;2.72;;;9.50;73.60;;;;;;7690306;23;20028;-73
2021/01/15 06:29:11;;;;;;;5.53;2.90;;;9.50;73.60;;;;;;7653255;23;20024;-74
2021/01/15 06:32:26;;;;;;;4.65;3.03;;;9.50;73.70;;;;;;7628577;23;20032;-74
2021/01/15 06:35:32;;;;;;;8.05;3.30;;;9.60;73.50;;;;;;7682218;23;20056;-74
2021/01/15 06:38:36;;;;;;;6.40;3.33;;;9.60;73.30;;;;;;7665001;23;20095;-75
2021/01/15 06:41:40;;;;;;;7.10;3.30;;;9.60;73.30;;;;;;7716752;23;20027;-74
2021/01/15 06:44:53;;;;;;;8.73;3.58;;;9.60;73.30;;;;;;7689811;23;20095;-74
2021/01/15 06:47:55;;;;;;;6.20;3.17;;;9.60;73.30;;;;;;7690847;23;20008;-74
2021/01/15 06:50:57;;;;;;;4.78;2.83;;;9.50;73.20;;;;;;7690089;23;20008;-74
2021/01/15 06:54:04;;;;;;;5.18;2.92;;;9.50;73.40;;;;;;7690275;23;20008;-74
2021/01/15 06:57:13;;;;;;;6.15;3.15;;;9.50;73.40;;;;;;7690435;23;20396;-75
2021/01/15 07:00:20;;;;;;;7.85;3.95;;;9.50;73.40;;;;;;7663524;23;20017;-74
2021/01/15 07:03:59;;;;;;;5.63;3.42;;;9.50;73.40;;;;;;7677670;23;20024;-73
2021/01/15 07:07:15;;;;;;;7.47;3.85;;;9.40;73.50;;;;;;7684179;23;20079;-75
2021/01/15 07:10:16;;;;;;;11.43;4.95;;;9.40;73.50;;;;;;7690522;23;20422;-73
2021/01/15 07:13:26;;;;;;;9.77;5.18;;;9.40;73.60;;;;;;7689925;23;20023;-74
2021/01/15 07:16:38;;;;;;;11.45;5.10;;;9.40;73.70;;;;;;7664034;23;20012;-74
2021/01/15 07:19:42;;;;;;;9.80;5.03;;;9.40;73.70;;;;;;7652698;23;20025;-75
2021/01/15 07:22:58;;;;;;;13.02;5.00;;;9.40;74.50;;;;;;7689066;23;20120;-73
2021/01/15 07:26:02;;;;;;;11.05;4.15;;;9.40;73.70;;;;;;7649888;23;20032;-74
2021/01/15 07:29:03;;;;;;;11.90;5.00;;;9.40;73.60;;;;;;7676388;23;20013;-73
2021/01/15 07:32:08;;;;;;;9.00;4.07;;;9.50;73.60;;;;;;7652444;23;20017;-75
2021/01/15 07:35:14;;;;;;;11.88;5.55;;;9.50;73.50;;;;;;7683066;23;20024;-73
2021/01/15 07:38:16;;;;;;;12.00;4.60;;;9.50;73.40;;;;;;7681288;23;20009;-74
2021/01/15 07:41:42;;;;;;;8.43;4.43;;;9.40;73.50;;;;;;7692200;23;20033;-73
2021/01/15 07:44:42;;;;;;;9.00;4.03;;;9.40;73.60;;;;;;7686283;23;20090;-75
2021/01/15 07:47:46;;;;;;;3.30;1.67;;;9.40;73.60;;;;;;7629761;23;20013;-74
2021/01/15 07:50:48;;;;;;;0.73;0.45;;;9.50;73.80;;;;;;7683523;23;20017;-72
2021/01/15 07:53:49;;;;;;;1.55;0.57;;;9.50;73.50;;;;;;7715662;23;20024;-71
2021/01/15 07:56:50;;;;;;;6.95;1.27;;;9.50;73.00;;;;;;7709501;23;20282;-73
2021/01/15 07:59:51;;;;;;;4.40;2.25;;;9.60;72.60;;;;;;7688868;23;20031;-74
2021/01/15 08:03:00;;;;;;;3.47;2.03;;;9.70;72.30;;;;;;7714356;23;20397;-74
2021/01/15 08:06:05;;;;;;;3.85;2.08;;;9.70;72.00;;;;;;7663304;23;20036;-73
2021/01/15 08:09:07;;;;;;;3.30;1.95;;;9.70;71.90;;;;;;7714390;23;20296;-74
2021/01/15 08:12:09;;;;;;;2.70;1.38;;;9.60;71.90;;;;;;7671694;23;20139;-73
2021/01/15 08:15:31;;;;;;;0.68;0.68;;;9.70;72.10;;;;;;7671791;23;20028;-74
2021/01/15 08:18:35;;;;;;;0.88;0.80;;;9.60;72.00;;;;;;7704377;23;20339;-81
2021/01/15 08:21:43;;;;;;;1.45;0.88;;;9.70;72.60;;;;;;7686999;23;20385;-71
2021/01/15 08:24:45;;;;;;;0.55;0.55;;;9.70;71.70;;;;;;7713920;23;20032;-71
2021/01/15 08:27:46;;;;;;;0.93;0.50;;;9.70;71.70;;;;;;7713131;23;20040;-71
2021/01/15 08:31:06;;;;;;;1.65;0.88;;;9.70;71.70;;;;;;7687762;23;20023;-72
2021/01/15 08:34:09;;;;;;;1.30;0.93;;;9.70;71.70;;;;;;7713451;23;20012;-71
2021/01/15 08:37:12;;;;;;;2.33;1.10;;;9.70;71.80;;;;;;7647035;23;20431;-71
2021/01/15 08:40:25;;;;;;;1.95;1.17;;;9.70;71.90;;;;;;7688048;23;20320;-71
2021/01/15 08:43:26;;;;;;;3.92;1.02;;;9.70;71.90;;;;;;7686973;23;20095;-72
2021/01/15 08:46:29;;;;;;;4.47;1.70;;;9.80;71.90;;;;;;7686847;23;20008;-70
2021/01/15 08:49:30;;;;;;;1.10;0.82;;;9.80;71.80;;;;;;7673405;23;20008;-71
2021/01/15 08:52:32;;;;;;;3.40;1.77;;;9.90;71.80;;;;;;7677931;23;20362;-71
2021/01/15 08:55:37;;;;;;;5.45;2.60;;;9.90;71.60;;;;;;7679149;23;20017;-72
2021/01/15 08:58:46;;;;;;;1.23;0.93;;;9.90;71.60;;;;;;7681980;23;20083;-71
2021/01/15 09:01:48;;;;;;;0.88;0.80;;;9.90;71.40;;;;;;7670517;23;20037;-72
2021/01/15 09:04:53;;;;;;;1.33;0.68;;;9.90;71.10;;;;;;7713176;23;20048;-72
2021/01/15 09:07:55;;;;;;;0.77;0.73;;;9.90;71.00;;;;;;7687522;23;20027;-71
2021/01/15 09:10:58;;;;;;;2.13;0.55;;;9.90;70.90;;;;;;7608995;23;20070;-73
2021/01/15 09:14:00;;;;;;;1.25;0.60;;;9.90;70.70;;;;;;7654610;23;20023;-73
2021/01/15 09:17:05;;;;;;;0.52;0.45;;;9.90;70.40;;;;;;7661077;23;20009;-74
2021/01/15 09:20:06;;;;;;;0.73;0.45;;;9.80;70.00;;;;;;7684413;23;20447;-75
2021/01/15 09:23:08;;;;;;;1.30;0.47;;;9.80;69.50;;;;;;7659975;23;20041;-74
2021/01/15 09:26:11;;;;;;;0.75;0.52;;;9.70;69.60;;;;;;7659026;23;20324;-72
2021/01/15 09:29:13;;;;;;;3.78;0.63;;;9.70;69.50;;;;;;7674047;23;20017;-72
2021/01/15 09:32:14;;;;;;;0.68;0.43;;;9.70;69.20;;;;;;7685791;23;20040;-73
2021/01/15 09:35:17;;;;;;;0.55;0.30;;;9.60;69.00;;;;;;7684489;23;20348;-73
2021/01/15 09:38:18;;;;;;;0.08;0.08;;;9.50;68.60;;;;;;7647892;23;20036;-74
2021/01/15 09:41:20;;;;;;;5.65;0.82;;;9.50;69.10;;;;;;7623748;23;20009;-74
2021/01/15 09:44:22;;;;;;;3.17;1.60;;;9.40;67.70;;;;;;7670151;23;20027;-74
2021/01/15 09:47:23;;;;;;;7.35;1.65;;;9.40;67.80;;;;;;7623431;23;20013;-72
2021/01/15 09:50:24;;;;;;;3.90;1.60;;;9.40;67.80;;;;;;7674128;23;20317;-75
2021/01/15 09:53:25;;;;;;;4.03;1.20;;;9.40;68.00;;;;;;7685964;23;20433;-73
2021/01/15 09:56:27;;;;;;;1.77;1.10;;;9.40;68.30;;;;;;7680809;23;20009;-73
2021/01/15 09:59:28;;;;;;;0.98;0.73;;;9.50;68.30;;;;;;7677382;23;20020;-73
2021/01/15 10:02:29;;;;;;;1.00;0.60;;;9.50;68.10;;;;;;7628389;23;20412;-74
2021/01/15 10:05:30;;;;;;;1.23;0.50;;;9.40;67.80;;;;;;7662124;23;20012;-73
2021/01/15 10:08:31;;;;;;;1.77;0.75;;;9.40;67.80;;;;;;7675930;23;20024;-73
2021/01/15 10:11:34;;;;;;;0.90;0.47;;;9.40;68.00;;;;;;7682489;23;20092;-75
2021/01/15 10:14:34;;;;;;;1.13;0.40;;;9.30;68.00;;;;;;7653255;23;20067;-73
2021/01/15 10:17:43;;;;;;;1.30;0.70;;;9.30;68.00;;;;;;7681926;23;20771;-74
2021/01/15 10:20:44;;;;;;;1.92;0.60;;;9.30;68.00;;;;;;7652695;23;20027;-74
2021/01/15 10:23:45;;;;;;;0.45;0.43;;;9.30;67.80;;;;;;7622787;23;20140;-74
2021/01/15 10:26:46;;;;;;;0.20;0.20;;;9.30;67.70;;;;;;7675030;23;20040;-74
2021/01/15 10:29:47;;;;;;;0.93;0.57;;;9.30;67.50;;;;;;7649188;23;20017;-74
2021/01/15 10:32:48;;;;;;;0.93;0.63;;;9.30;67.00;;;;;;7623887;23;20343;-74
2021/01/15 10:35:52;;;;;;;2.10;0.38;;;9.40;67.00;;;;;;7684952;23;20013;-73
2021/01/15 10:38:54;;;;;;;0.43;0.32;;;9.40;67.00;;;;;;7686383;23;20024;-72
2021/01/15 10:41:55;;;;;;;1.73;0.60;;;9.40;66.90;;;;;;7711892;23;20017;-73
2021/01/15 10:44:58;;;;;;;1.17;0.68;;;9.50;67.00;;;;;;7682238;23;20449;-74
2021/01/15 10:47:59;;;;;;;0.30;0.30;;;9.50;66.80;;;;;;7685340;23;20120;-71
2021/01/15 10:51:00;;;;;;;1.25;0.75;;;9.60;66.80;;;;;;7685798;23;20021;-74
2021/01/15 10:54:01;;;;;;;0.73;0.45;;;9.60;67.00;;;;;;7684832;23;20047;-73
2021/01/15 10:57:02;;;;;;;1.38;0.75;;;9.60;67.00;;;;;;7660923;23;20016;-73
2021/01/15 11:00:04;;;;;;;0.75;0.52;;;9.60;66.80;;;;;;7647138;23;20394;-74
2021/01/15 11:03:05;;;;;;;0.88;0.55;;;9.50;66.90;;;;;;7624545;23;20017;-73
2021/01/15 11:06:07;;;;;;;0.95;0.50;;;9.40;67.20;;;;;;7676516;23;20024;-72
2021/01/15 11:09:11;;;;;;;0.75;0.50;;;9.30;67.70;;;;;;7651185;23;20159;-74
2021/01/15 11:12:12;;;;;;;3.85;0.68;;;9.30;67.90;;;;;;7650955;23;20017;-74
2021/01/15 11:15:13;;;;;;;0.30;0.20;;;9.20;68.20;;;;;;7711680;23;20040;-73
2021/01/15 11:18:14;;;;;;;0.28;0.20;;;9.20;68.00;;;;;;7688501;23;20292;-74
2021/01/15 11:21:26;;;;;;;0.40;0.20;;;9.10;67.80;;;;;;7685398;23;20066;-75
2021/01/15 11:24:26;;;;;;;1.58;1.15;;;9.00;67.30;;;;;;7675855;23;20024;-73
2021/01/15 11:27:27;;;;;;;12.60;4.93;;;8.90;66.90;;;;;;7643035;23;20274;-75
2021/01/15 11:30:29;;;;;;;0.50;0.50;;;8.80;67.10;;;;;;7683170;23;20005;-74
2021/01/15 11:33:29;;;;;;;0.28;0.25;;;8.60;67.20;;;;;;7674714;23;20024;-74
2021/01/15 11:36:31;;;;;;;0.88;0.22;;;8.50;67.30;;;;;;7683847;23;20036;-74
2021/01/15 11:39:32;;;;;;;0.47;0.43;;;8.40;67.40;;;;;;7625373;23;20325;-73
2021/01/15 11:42:34;;;;;;;1.38;0.50;;;8.30;67.50;;;;;;7674905;23;20028;-73
2021/01/15 11:45:35;;;;;;;1.60;0.40;;;8.20;67.60;;;;;;7686289;23;20024;-74
2021/01/15 11:48:38;;;;;;;0.95;0.32;;;8.00;67.90;;;;;;7653686;23;20091;-73
2021/01/15 11:51:39;;;;;;;0.50;0.32;;;8.00;68.10;;;;;;7648225;23;20377;-72
2021/01/15 11:54:40;;;;;;;0.20;0.20;;;7.90;68.30;;;;;;7625867;23;20017;-73
2021/01/15 11:57:41;;;;;;;0.30;0.20;;;7.80;68.30;;;;;;7676181;23;20017;-73
2021/01/15 12:00:42;;;;;;;1.20;0.43;;;7.70;68.50;;;;;;7629778;23;20032;-73
2021/01/15 12:03:44;;;;;;;0.10;0.10;;;7.70;68.70;;;;;;7714410;23;20099;-73
2021/01/15 12:06:53;;;;;;;0.52;0.30;;;7.60;68.70;;;;;;7626183;23;20424;-73
2021/01/15 12:09:54;;;;;;;0.77;0.30;;;7.60;68.60;;;;;;7682713;23;20016;-73
2021/01/15 12:12:55;;;;;;;0.10;0.10;;;7.60;68.50;;;;;;7687745;23;20023;-73
2021/01/15 12:15:57;;;;;;;2.55;0.65;;;7.60;68.40;;;;;;7711316;23;20023;-74
2021/01/15 12:18:58;;;;;;;0.63;0.32;;;7.50;68.20;;;;;;7713138;23;20382;-75
2021/01/15 12:21:59;;;;;;;0.38;0.28;;;7.60;68.30;;;;;;7649399;23;20021;-74
2021/01/15 12:25:00;;;;;;;1.02;0.20;;;7.60;68.20;;;;;;7650163;23;20029;-75
2021/01/15 12:28:01;;;;;;;0.38;0.32;;;7.60;68.20;;;;;;7623756;23;20013;-73
2021/01/15 12:31:02;;;;;;;0.60;0.45;;;7.60;68.20;;;;;;7646781;23;20025;-73
2021/01/15 12:34:03;;;;;;;0.38;0.38;;;7.60;67.90;;;;;;7676726;23;20028;-74
2021/01/15 12:37:04;;;;;;;3.10;0.30;;;7.60;67.70;;;;;;7651050;23;20020;-73
2021/01/15 12:40:07;;;;;;;0.17;0.17;;;7.70;67.50;;;;;;7650743;23;20158;-76
2021/01/15 12:43:10;;;;;;;0.10;0.10;;;7.60;67.40;;;;;;7675901;23;20024;-73
2021/01/15 12:46:11;;;;;;;1.63;0.35;;;7.60;67.50;;;;;;7674634;23;20088;-73
2021/01/15 12:49:12;;;;;;;0.32;0.32;;;7.70;67.80;;;;;;7649857;23;20013;-72
2021/01/15 12:52:20;;;;;;;4.63;2.05;;;7.60;67.70;;;;;;7649857;23;20071;-75
2021/01/15 12:55:22;;;;;;;4.00;2.57;;;7.70;67.80;;;;;;7676607;23;20017;-74
2021/01/15 12:58:24;;;;;;;10.70;3.65;;;7.60;67.70;;;;;;7625629;23;20071;-73
2021/01/15 13:01:25;;;;;;;16.98;6.15;;;7.60;67.70;;;;;;7679448;23;20367;-72
2021/01/15 13:04:29;;;;;;;0.60;0.50;;;7.60;67.60;;;;;;7710982;23;20019;-74
2021/01/15 13:07:30;;;;;;;0.10;0.10;;;7.60;67.90;;;;;;7687071;23;20304;-72
2021/01/15 13:10:33;;;;;;;0.20;0.20;;;7.60;68.00;;;;;;7686681;23;20451;-72
2021/01/15 13:13:34;;;;;;;0.30;0.30;;;7.60;67.80;;;;;;7647064;23;20309;-74
2021/01/15 13:16:36;;;;;;;0.43;0.40;;;7.60;67.90;;;;;;7679816;23;20012;-74
2021/01/15 13:19:37;;;;;;;0.40;0.40;;;7.60;67.80;;;;;;7684208;23;20020;-74
2021/01/15 13:22:39;;;;;;;0.60;0.40;;;7.50;67.70;;;;;;7668859;23;20356;-75
2021/01/15 13:25:40;;;;;;;0.20;0.20;;;7.50;67.60;;;;;;7686479;23;20027;-75
2021/01/15 13:28:41;;;;;;;0.20;0.20;;;7.50;67.90;;;;;;7650089;23;20095;-74
2021/01/15 13:31:42;;;;;;;0.60;0.50;;;7.60;67.80;;;;;;7678567;23;20032;-73
2021/01/15 13:34:43;;;;;;;0.93;0.60;;;7.70;67.20;;;;;;7660625;23;20016;-74
2021/01/15 13:37:44;;;;;;;0.85;0.50;;;7.70;67.00;;;;;;7653387;23;20083;-74
2021/01/15 13:40:45;;;;;;;0.98;0.75;;;7.80;67.00;;;;;;7683383;23;20012;-74
2021/01/15 13:43:57;;;;;;;0.68;0.60;;;7.90;67.10;;;;;;7712512;23;20095;-73
2021/01/15 13:46:58;;;;;;;1.50;0.85;;;7.90;66.70;;;;;;7684936;23;20021;-74
2021/01/15 13:50:00;;;;;;;1.10;0.50;;;7.90;66.80;;;;;;7686139;23;20028;-74
2021/01/15 13:53:01;;;;;;;0.63;0.60;;;7.90;66.70;;;;;;7670654;23;20021;-73
2021/01/15 13:56:02;;;;;;;0.45;0.40;;;7.80;66.60;;;;;;7649473;23;20071;-74
2021/01/15 13:59:03;;;;;;;3.40;1.67;;;7.80;66.40;;;;;;7673605;23;20092;-74
2021/01/15 14:02:04;;;;;;;1.33;0.82;;;7.70;66.40;;;;;;7673724;23;20017;-74
2021/01/15 14:05:05;;;;;;;0.88;0.68;;;7.70;66.80;;;;;;7649038;23;20475;-75
2021/01/15 14:08:07;;;;;;;2.17;0.85;;;7.70;67.00;;;;;;7649622;23;20016;-73
2021/01/15 14:11:08;;;;;;;0.57;0.38;;;7.70;67.00;;;;;;7661086;23;20132;-74
2021/01/15 14:14:09;;;;;;;0.70;0.50;;;7.70;67.10;;;;;;7633983;23;20088;-73
2021/01/15 14:17:10;;;;;;;0.70;0.52;;;7.70;66.90;;;;;;7672430;23;20088;-74
2021/01/15 14:20:12;;;;;;;1.42;0.82;;;7.70;66.70;;;;;;7675060;23;20047;-73
2021/01/15 14:23:12;;;;;;;0.80;0.70;;;7.70;66.90;;;;;;7675930;23;20148;-73
2021/01/15 14:26:13;;;;;;;0.93;0.68;;;7.70;66.70;;;;;;7675983;23;20017;-74
2021/01/15 14:29:15;;;;;;;0.77;0.68;;;7.70;66.70;;;;;;7675606;23;20418;-73
2021/01/15 14:32:15;;;;;;;1.55;0.50;;;7.70;66.60;;;;;;7674308;23;20028;-75
2021/01/15 14:35:19;;;;;;;1.67;0.85;;;7.70;66.70;;;;;;7673552;23;20313;-73
2021/01/15 14:38:20;;;;;;;0.50;0.50;;;7.70;66.60;;;;;;7674393;23;20045;-74
2021/01/15 14:41:21;;;;;;;1.08;0.75;;;7.60;66.60;;;;;;7674624;23;20013;-73
2021/01/15 14:44:22;;;;;;;0.52;0.52;;;7.60;66.30;;;;;;7676151;23;20024;-73
2021/01/15 14:47:22;;;;;;;0.93;0.55;;;7.60;66.30;;;;;;7661405;23;20016;-73
2021/01/15 14:50:23;;;;;;;2.15;0.80;;;7.50;66.40;;;;;;7678225;23;20005;-73
2021/01/15 14:53:24;;;;;;;0.55;0.50;;;7.40;66.40;;;;;;7676032;23;20021;-74
2021/01/15 14:56:26;;;;;;;1.05;0.70;;;7.40;66.70;;;;;;7676911;23;20028;-73
2021/01/15 14:59:27;;;;;;;2.65;1.00;;;7.40;66.60;;;;;;7676952;23;20377;-73
2021/01/15 15:02:28;;;;;;;0.63;0.60;;;7.30;66.60;;;;;;7651659;23;20032;-73
2021/01/15 15:05:29;;;;;;;0.80;0.68;;;7.30;66.90;;;;;;7678655;23;20017;-73
2021/01/15 15:08:30;;;;;;;0.88;0.68;;;7.30;67.00;;;;;;7675614;23;20012;-73
2021/01/15 15:11:32;;;;;;;1.08;0.82;;;7.20;67.10;;;;;;7676116;23;20096;-73
2021/01/15 15:14:33;;;;;;;1.30;1.00;;;7.20;67.30;;;;;;7676624;23;20005;-72
2021/01/15 15:17:35;;;;;;;1.20;0.70;;;7.20;67.40;;;;;;7677844;23;20013;-74
2021/01/15 15:20:37;;;;;;;2.15;1.08;;;7.20;67.60;;;;;;7680383;23;20032;-73
2021/01/15 15:23:38;;;;;;;1.08;0.93;;;7.30;67.70;;;;;;7680896;23;20321;-73
2021/01/15 15:26:39;;;;;;;0.85;0.73;;;7.30;67.40;;;;;;7677717;23;20079;-74
2021/01/15 15:29:40;;;;;;;0.98;0.77;;;7.30;67.10;;;;;;7677775;23;20016;-72
2021/01/15 15:32:40;;;;;;;1.35;0.63;;;7.30;67.10;;;;;;7679741;23;20036;-74
2021/01/15 15:35:42;;;;;;;1.25;0.68;;;7.30;67.10;;;;;;7663686;23;20313;-74
2021/01/15 15:38:46;;;;;;;1.17;1.08;;;7.30;66.90;;;;;;7654793;23;20096;-74
2021/01/15 15:41:54;;;;;;;0.40;0.40;;;7.20;66.60;;;;;;7678459;23;20024;-73
2021/01/15 15:44:55;;;;;;;0.40;0.40;;;7.20;66.70;;;;;;7644586;23;20015;-74
2021/01/15 15:47:56;;;;;;;0.88;0.73;;;7.30;66.80;;;;;;7640945;23;20364;-74
2021/01/15 15:50:57;;;;;;;1.05;0.75;;;7.30;66.60;;;;;;7683449;23;20012;-74
2021/01/15 15:53:58;;;;;;;0.70;0.50;;;7.30;66.30;;;;;;7663952;23;20020;-73
2021/01/15 15:56:59;;;;;;;3.20;0.80;;;7.30;66.60;;;;;;7689428;23;20016;-74
2021/01/15 16:00:00;;;;;;;1.08;0.50;;;7.30;65.70;;;;;;7689546;23;20012;-74
2021/01/15 16:03:01;;;;;;;0.85;0.70;;;7.30;65.50;;;;;;7715442;23;20024;-73
2021/01/15 16:06:06;;;;;;;1.15;0.90;;;7.30;65.20;;;;;;7716157;23;20012;-74